createdAt,value
2022-10-26T00:09:43.713Z,12.10
2022-10-26T00:24:45.885Z,12.82
2022-10-26T00:39:47.854Z,12.85
2022-10-26T00:54:50.203Z,12.40
2022-10-26T01:09:53.364Z,12.15
2022-10-26T01:25:25.840Z,10.63
2022-10-26T01:40:51.985Z,12.57
2022-10-26T01:55:55.642Z,10.82
2022-10-26T02:11:24.842Z,18.38
2022-10-26T02:26:29.687Z,12.07
2022-10-26T02:41:34.211Z,12.65
2022-10-26T02:57:08.689Z,12.60
2022-10-26T03:12:10.578Z,10.30
2022-10-26T03:27:12.442Z,9.25
2022-10-26T03:42:14.366Z,11.68
2022-10-26T03:57:16.384Z,6.93
2022-10-26T04:12:18.264Z,6.40
2022-10-26T04:27:20.127Z,7.30
2022-10-26T04:42:22.001Z,6.82
2022-10-26T04:57:23.895Z,8.85
2022-10-26T05:12:25.788Z,12.75
2022-10-26T05:27:27.753Z,15.10
2022-10-26T05:42:29.677Z,15.40
2022-10-26T05:57:31.810Z,25.95
2022-10-26T06:12:34.051Z,20.35
2022-10-26T06:28:02.866Z,23.00
2022-10-26T06:43:09.584Z,31.48
2022-10-26T06:58:20.415Z,18.25
2022-10-26T07:13:22.260Z,23.67
2022-10-26T07:28:24.139Z,12.10
2022-10-26T07:43:26.058Z,13.18
2022-10-26T07:58:28.318Z,10.02
2022-10-26T08:13:30.454Z,7.60
2022-10-26T08:28:32.328Z,8.40
2022-10-26T08:43:47.333Z,8.07
2022-10-26T08:58:54.519Z,7.05
2022-10-26T09:14:21.027Z,5.50
2022-10-26T09:29:31.700Z,6.68
2022-10-26T09:44:58.107Z,6.90
2022-10-26T10:00:00.090Z,6.20
2022-10-26T10:15:02.120Z,8.57
2022-10-26T10:30:23.764Z,4.30
2022-10-26T10:45:29.030Z,4.95
2022-10-26T11:00:34.775Z,5.63
2022-10-26T11:15:40.374Z,4.60
2022-10-26T11:30:49.180Z,5.25
2022-10-26T11:46:08.850Z,2.92
2022-10-26T12:01:15.324Z,3.40
2022-10-26T12:16:32.339Z,3.80
2022-10-26T12:31:37.335Z,4.35
2022-10-26T12:46:40.672Z,2.97
2022-10-26T13:02:03.367Z,3.70
2022-10-26T13:17:07.132Z,2.33
2022-10-26T13:32:09.359Z,2.60
2022-10-26T13:47:17.911Z,3.15
2022-10-26T14:02:22.519Z,2.87
2022-10-26T14:17:26.493Z,2.63
2022-10-26T14:32:28.400Z,3.22
2022-10-26T14:47:35.042Z,1.92
2022-10-26T15:02:37.251Z,4.30
2022-10-26T15:17:42.813Z,6.20
2022-10-26T15:32:44.980Z,2.65
2022-10-26T15:47:47.437Z,4.65
2022-10-26T16:02:49.652Z,3.83
2022-10-26T16:17:52.589Z,5.93
2022-10-26T16:32:54.794Z,12.05
2022-10-26T16:47:56.918Z,18.77
2022-10-26T17:03:00.917Z,11.38
2022-10-26T17:18:02.876Z,14.70
2022-10-26T17:33:04.926Z,19.67
2022-10-26T17:48:06.816Z,21.80
2022-10-26T18:03:08.838Z,14.80
2022-10-26T18:18:10.727Z,13.55
2022-10-26T18:33:12.649Z,15.57
2022-10-26T18:48:15.422Z,18.27
2022-10-26T19:03:17.657Z,22.45
2022-10-26T19:18:19.488Z,19.92
2022-10-26T19:33:27.206Z,24.67
2022-10-26T19:48:29.083Z,22.08
2022-10-26T20:03:30.974Z,19.98
2022-10-26T20:18:32.882Z,24.30
2022-10-26T20:33:34.811Z,26.65
2022-10-26T20:48:38.799Z,30.77
2022-10-26T21:03:40.795Z,26.30
2022-10-26T21:18:42.922Z,26.63
2022-10-26T21:33:46.803Z,39.53
2022-10-26T21:48:48.698Z,32.97
2022-10-26T22:03:50.581Z,28.23
2022-10-26T22:18:55.194Z,26.85
2022-10-26T22:34:02.027Z,29.70
2022-10-26T22:49:06.797Z,24.85
2022-10-26T23:04:11.915Z,35.20
2022-10-26T23:19:13.826Z,27.08
2022-10-26T23:34:15.656Z,32.60
2022-10-26T23:49:17.555Z,24.05
